sensor_id;sensor_type;location;lat;lon;timestamp;temperature;humidity
3866;DHT22;1948;53.250;10.412;2022-12-11T00:01:12;0.00;99.90
3866;DHT22;1948;53.250;10.412;2022-12-11T00:03:43;0.00;99.90
3866;DHT22;1948;53.250;10.412;2022-12-11T00:06:12;0.00;99.90
3866;DHT22;1948;53.250;10.412;2022-12-11T00:08:41;0.00;99.90
3866;DHT22;1948;53.250;10.412;2022-12-11T00:11:11;0.10;99.90
3866;DHT22;1948;53.250;10.412;2022-12-11T00:13:38;0.10;99.90
3866;DHT22;1948;53.250;10.412;2022-12-11T00:16:06;0.00;99.90
3866;DHT22;1948;53.250;10.412;2022-12-11T00:18:33;0.00;99.90
3866;DHT22;1948;53.250;10.412;2022-12-11T00:21:05;0.00;99.90
3866;DHT22;1948;53.250;10.412;2022-12-11T00:23:35;0.00;99.90
3866;DHT22;1948;53.250;10.412;2022-12-11T00:26:08;0.00;99.90
3866;DHT22;1948;53.250;10.412;2022-12-11T00:28:43;0.10;99.90
3866;DHT22;1948;53.250;10.412;2022-12-11T00:31:16;0.10;99.90
3866;DHT22;1948;53.250;10.412;2022-12-11T00:33:45;0.20;99.90
3866;DHT22;1948;53.250;10.412;2022-12-11T00:36:21;0.10;99.90
3866;DHT22;1948;53.250;10.412;2022-12-11T00:38:53;0.00;99.90
3866;DHT22;1948;53.250;10.412;2022-12-11T00:41:20;-0.10;99.90
3866;DHT22;1948;53.250;10.412;2022-12-11T00:43:47;-0.10;99.90
3866;DHT22;1948;53.250;10.412;2022-12-11T00:46:14;-0.10;99.90
3866;DHT22;1948;53.250;10.412;2022-12-11T00:48:46;-0.10;99.90
3866;DHT22;1948;53.250;10.412;2022-12-11T00:51:16;0.00;99.90
3866;DHT22;1948;53.250;10.412;2022-12-11T00:53:45;0.00;99.90
3866;DHT22;1948;53.250;10.412;2022-12-11T00:56:17;0.00;99.90
3866;DHT22;1948;53.250;10.412;2022-12-11T00:58:47;-0.10;99.90
3866;DHT22;1948;53.250;10.412;2022-12-11T01:01:18;-0.20;99.90
3866;DHT22;1948;53.250;10.412;2022-12-11T01:03:51;-0.20;99.90
3866;DHT22;1948;53.250;10.412;2022-12-11T01:06:21;-0.20;99.90
3866;DHT22;1948;53.250;10.412;2022-12-11T01:08:51;-0.10;99.90
3866;DHT22;1948;53.250;10.412;2022-12-11T01:11:37;-0.10;99.90
3866;DHT22;1948;53.250;10.412;2022-12-11T01:14:05;0.00;99.90
3866;DHT22;1948;53.250;10.412;2022-12-11T01:16:33;0.10;99.90
3866;DHT22;1948;53.250;10.412;2022-12-11T01:18:59;0.10;99.90
3866;DHT22;1948;53.250;10.412;2022-12-11T01:21:31;0.00;99.90
3866;DHT22;1948;53.250;10.412;2022-12-11T01:23:58;0.00;99.90
3866;DHT22;1948;53.250;10.412;2022-12-11T01:26:25;-0.10;99.90
3866;DHT22;1948;53.250;10.412;2022-12-11T01:28:56;0.00;99.90
3866;DHT22;1948;53.250;10.412;2022-12-11T01:31:23;0.00;99.90
3866;DHT22;1948;53.250;10.412;2022-12-11T01:33:53;0.00;99.90
3866;DHT22;1948;53.250;10.412;2022-12-11T01:36:21;-0.10;99.90
3866;DHT22;1948;53.250;10.412;2022-12-11T01:38:49;-0.10;99.90
3866;DHT22;1948;53.250;10.412;2022-12-11T01:41:17;-0.20;99.90
3866;DHT22;1948;53.250;10.412;2022-12-11T01:46:42;-0.10;99.90
3866;DHT22;1948;53.250;10.412;2022-12-11T01:49:12;-0.10;99.90
3866;DHT22;1948;53.250;10.412;2022-12-11T01:51:48;-0.10;99.90
3866;DHT22;1948;53.250;10.412;2022-12-11T01:54:21;-0.10;99.90
3866;DHT22;1948;53.250;10.412;2022-12-11T01:56:54;-0.10;99.90
3866;DHT22;1948;53.250;10.412;2022-12-11T01:59:25;-0.10;99.90
3866;DHT22;1948;53.250;10.412;2022-12-11T02:01:57;0.00;99.90
3866;DHT22;1948;53.250;10.412;2022-12-11T02:04:31;-0.10;99.90
3866;DHT22;1948;53.250;10.412;2022-12-11T02:06:59;-0.10;99.90
3866;DHT22;1948;53.250;10.412;2022-12-11T02:09:30;-0.10;99.90
3866;DHT22;1948;53.250;10.412;2022-12-11T02:12:23;-0.10;99.90
3866;DHT22;1948;53.250;10.412;2022-12-11T02:21:02;-0.10;99.90
3866;DHT22;1948;53.250;10.412;2022-12-11T02:24:11;-0.10;99.90
3866;DHT22;1948;53.250;10.412;2022-12-11T02:27:07;-0.20;99.90
3866;DHT22;1948;53.250;10.412;2022-12-11T02:29:52;-0.10;99.90
3866;DHT22;1948;53.250;10.412;2022-12-11T02:32:47;-0.10;99.90
3866;DHT22;1948;53.250;10.412;2022-12-11T02:35:35;-0.20;99.90
3866;DHT22;1948;53.250;10.412;2022-12-11T02:38:09;-0.20;99.90
3866;DHT22;1948;53.250;10.412;2022-12-11T02:40:42;-0.20;99.90
3866;DHT22;1948;53.250;10.412;2022-12-11T02:43:12;-0.20;99.90
3866;DHT22;1948;53.250;10.412;2022-12-11T02:45:41;-0.20;99.90
3866;DHT22;1948;53.250;10.412;2022-12-11T02:48:10;-0.20;99.90
3866;DHT22;1948;53.250;10.412;2022-12-11T02:50:43;-0.10;99.90
3866;DHT22;1948;53.250;10.412;2022-12-11T02:53:16;0.00;99.90
3866;DHT22;1948;53.250;10.412;2022-12-11T02:55:50;0.10;99.90
3866;DHT22;1948;53.250;10.412;2022-12-11T02:58:24;0.10;99.90
3866;DHT22;1948;53.250;10.412;2022-12-11T03:00:53;0.10;99.90
3866;DHT22;1948;53.250;10.412;2022-12-11T03:03:21;0.10;99.90
3866;DHT22;1948;53.250;10.412;2022-12-11T03:05:49;0.10;99.90
3866;DHT22;1948;53.250;10.412;2022-12-11T03:08:16;0.10;99.90
3866;DHT22;1948;53.250;10.412;2022-12-11T03:10:46;0.10;99.90
3866;DHT22;1948;53.250;10.412;2022-12-11T03:13:19;0.00;99.90
3866;DHT22;1948;53.250;10.412;2022-12-11T03:16:14;0.00;99.90
3866;DHT22;1948;53.250;10.412;2022-12-11T03:21:57;-0.10;99.90
3866;DHT22;1948;53.250;10.412;2022-12-11T03:24:50;-0.10;99.90
3866;DHT22;1948;53.250;10.412;2022-12-11T03:27:29;-0.10;99.90
3866;DHT22;1948;53.250;10.412;2022-12-11T03:30:11;-0.10;99.90
3866;DHT22;1948;53.250;10.412;2022-12-11T03:32:57;-0.10;99.90
3866;DHT22;1948;53.250;10.412;2022-12-11T03:36:02;-0.10;99.90
3866;DHT22;1948;53.250;10.412;2022-12-11T03:38:46;0.00;99.90
3866;DHT22;1948;53.250;10.412;2022-12-11T03:41:21;0.00;99.90
3866;DHT22;1948;53.250;10.412;2022-12-11T03:43:53;0.00;99.90
3866;DHT22;1948;53.250;10.412;2022-12-11T03:46:30;-0.10;99.90
3866;DHT22;1948;53.250;10.412;2022-12-11T03:49:22;-0.10;99.90
3866;DHT22;1948;53.250;10.412;2022-12-11T03:51:54;-0.10;99.90
3866;DHT22;1948;53.250;10.412;2022-12-11T03:54:29;-0.10;99.90
3866;DHT22;1948;53.250;10.412;2022-12-11T03:57:01;-0.10;99.90
3866;DHT22;1948;53.250;10.412;2022-12-11T03:59:33;0.00;99.90
3866;DHT22;1948;53.250;10.412;2022-12-11T04:02:01;0.00;99.90
3866;DHT22;1948;53.250;10.412;2022-12-11T04:04:37;0.10;99.90
3866;DHT22;1948;53.250;10.412;2022-12-11T04:07:07;0.00;99.90
3866;DHT22;1948;53.250;10.412;2022-12-11T04:09:35;-0.10;99.90
3866;DHT22;1948;53.250;10.412;2022-12-11T04:12:03;-0.10;99.90
3866;DHT22;1948;53.250;10.412;2022-12-11T04:14:30;-0.20;99.90
3866;DHT22;1948;53.250;10.412;2022-12-11T04:17:17;-0.30;99.90
3866;DHT22;1948;53.250;10.412;2022-12-11T04:20:05;-0.30;99.90
3866;DHT22;1948;53.250;10.412;2022-12-11T04:22:55;-0.30;99.90
3866;DHT22;1948;53.250;10.412;2022-12-11T04:25:41;-0.40;99.90
3866;DHT22;1948;53.250;10.412;2022-12-11T04:28:09;-0.40;99.90
3866;DHT22;1948;53.250;10.412;2022-12-11T04:30:39;-0.40;99.90
3866;DHT22;1948;53.250;10.412;2022-12-11T04:33:07;-0.40;99.90
3866;DHT22;1948;53.250;10.412;2022-12-11T04:35:35;-0.40;99.90
3866;DHT22;1948;53.250;10.412;2022-12-11T04:38:02;-0.40;99.90
3866;DHT22;1948;53.250;10.412;2022-12-11T04:40:30;-0.30;99.90
3866;DHT22;1948;53.250;10.412;2022-12-11T04:43:01;-0.40;99.90
3866;DHT22;1948;53.250;10.412;2022-12-11T04:45:28;-0.40;99.90
3866;DHT22;1948;53.250;10.412;2022-12-11T04:47:58;-0.40;99.90
3866;DHT22;1948;53.250;10.412;2022-12-11T04:50:28;-0.50;99.90
3866;DHT22;1948;53.250;10.412;2022-12-11T04:52:56;-0.60;99.90
3866;DHT22;1948;53.250;10.412;2022-12-11T04:55:23;-0.50;99.90
3866;DHT22;1948;53.250;10.412;2022-12-11T04:57:51;-0.50;99.90
3866;DHT22;1948;53.250;10.412;2022-12-11T05:00:18;-0.50;99.90
3866;DHT22;1948;53.250;10.412;2022-12-11T05:02:48;-0.50;99.90
3866;DHT22;1948;53.250;10.412;2022-12-11T05:05:16;-0.70;99.90
3866;DHT22;1948;53.250;10.412;2022-12-11T05:07:44;-0.80;99.90
3866;DHT22;1948;53.250;10.412;2022-12-11T05:10:11;-0.80;99.90
3866;DHT22;1948;53.250;10.412;2022-12-11T05:12:42;-0.80;99.90
3866;DHT22;1948;53.250;10.412;2022-12-11T05:15:09;-0.90;99.90
3866;DHT22;1948;53.250;10.412;2022-12-11T05:17:37;-1.10;99.90
3866;DHT22;1948;53.250;10.412;2022-12-11T05:20:06;-1.20;99.90
3866;DHT22;1948;53.250;10.412;2022-12-11T05:22:34;-1.30;99.90
3866;DHT22;1948;53.250;10.412;2022-12-11T05:25:01;-1.30;99.90
3866;DHT22;1948;53.250;10.412;2022-12-11T05:27:30;-1.40;99.90
3866;DHT22;1948;53.250;10.412;2022-12-11T05:30:00;-1.40;99.90
3866;DHT22;1948;53.250;10.412;2022-12-11T05:32:28;-1.50;99.90
3866;DHT22;1948;53.250;10.412;2022-12-11T05:34:55;-1.50;99.90
3866;DHT22;1948;53.250;10.412;2022-12-11T05:37:23;-1.50;99.90
3866;DHT22;1948;53.250;10.412;2022-12-11T05:39:50;-1.60;99.90
3866;DHT22;1948;53.250;10.412;2022-12-11T05:42:17;-1.60;99.90
3866;DHT22;1948;53.250;10.412;2022-12-11T05:44:57;-1.60;99.90
3866;DHT22;1948;53.250;10.412;2022-12-11T05:47:24;-1.60;99.90
3866;DHT22;1948;53.250;10.412;2022-12-11T05:49:51;-1.70;99.90
3866;DHT22;1948;53.250;10.412;2022-12-11T05:52:19;-1.70;99.90
3866;DHT22;1948;53.250;10.412;2022-12-11T05:54:48;-1.70;99.90
3866;DHT22;1948;53.250;10.412;2022-12-11T05:57:16;-1.80;99.90
3866;DHT22;1948;53.250;10.412;2022-12-11T05:59:44;-1.80;99.90
3866;DHT22;1948;53.250;10.412;2022-12-11T06:02:11;-1.70;99.90
3866;DHT22;1948;53.250;10.412;2022-12-11T06:04:39;-1.80;99.90
3866;DHT22;1948;53.250;10.412;2022-12-11T06:07:06;-1.80;99.90
3866;DHT22;1948;53.250;10.412;2022-12-11T06:09:34;-1.80;99.90
3866;DHT22;1948;53.250;10.412;2022-12-11T06:12:01;-1.80;99.90
3866;DHT22;1948;53.250;10.412;2022-12-11T06:14:29;-1.70;99.90
3866;DHT22;1948;53.250;10.412;2022-12-11T06:16:56;-1.70;99.90
3866;DHT22;1948;53.250;10.412;2022-12-11T06:19:23;-1.70;99.90
3866;DHT22;1948;53.250;10.412;2022-12-11T06:21:50;-1.80;99.90
3866;DHT22;1948;53.250;10.412;2022-12-11T06:24:18;-1.70;99.90
3866;DHT22;1948;53.250;10.412;2022-12-11T06:26:46;-1.70;99.90
3866;DHT22;1948;53.250;10.412;2022-12-11T06:29:16;-1.80;99.90
3866;DHT22;1948;53.250;10.412;2022-12-11T06:31:46;-1.80;99.90
3866;DHT22;1948;53.250;10.412;2022-12-11T06:34:15;-1.80;99.90
3866;DHT22;1948;53.250;10.412;2022-12-11T06:36:43;-1.70;99.90
3866;DHT22;1948;53.250;10.412;2022-12-11T06:39:12;-1.70;99.90
3866;DHT22;1948;53.250;10.412;2022-12-11T06:41:40;-1.60;99.90
3866;DHT22;1948;53.250;10.412;2022-12-11T06:44:10;-1.70;99.90
3866;DHT22;1948;53.250;10.412;2022-12-11T06:46:37;-1.70;99.90
3866;DHT22;1948;53.250;10.412;2022-12-11T06:49:07;-1.70;99.90
3866;DHT22;1948;53.250;10.412;2022-12-11T06:51:34;-1.70;99.90
3866;DHT22;1948;53.250;10.412;2022-12-11T06:54:04;-1.70;99.90
3866;DHT22;1948;53.250;10.412;2022-12-11T06:56:33;-1.70;99.90
3866;DHT22;1948;53.250;10.412;2022-12-11T06:59:02;-1.80;99.90
3866;DHT22;1948;53.250;10.412;2022-12-11T07:01:33;-1.80;99.90
3866;DHT22;1948;53.250;10.412;2022-12-11T07:04:00;-1.90;99.90
3866;DHT22;1948;53.250;10.412;2022-12-11T07:06:28;-1.90;99.90
3866;DHT22;1948;53.250;10.412;2022-12-11T07:08:55;-1.90;99.90
3866;DHT22;1948;53.250;10.412;2022-12-11T07:11:22;-1.90;99.90
3866;DHT22;1948;53.250;10.412;2022-12-11T07:13:50;-1.90;99.90
3866;DHT22;1948;53.250;10.412;2022-12-11T07:16:19;-1.90;99.90
3866;DHT22;1948;53.250;10.412;2022-12-11T07:18:48;-1.90;99.90
3866;DHT22;1948;53.250;10.412;2022-12-11T07:21:18;-2.00;99.90
3866;DHT22;1948;53.250;10.412;2022-12-11T07:23:46;-2.00;99.90
3866;DHT22;1948;53.250;10.412;2022-12-11T07:26:16;-2.10;99.90
3866;DHT22;1948;53.250;10.412;2022-12-11T07:28:46;-2.10;99.90
3866;DHT22;1948;53.250;10.412;2022-12-11T07:31:23;-2.10;99.90
3866;DHT22;1948;53.250;10.412;2022-12-11T07:34:04;-2.10;99.90
3866;DHT22;1948;53.250;10.412;2022-12-11T07:36:33;-2.00;99.90
3866;DHT22;1948;53.250;10.412;2022-12-11T07:39:01;-2.00;99.90
3866;DHT22;1948;53.250;10.412;2022-12-11T07:41:30;-1.90;99.90
3866;DHT22;1948;53.250;10.412;2022-12-11T07:44:03;-2.00;99.90
3866;DHT22;1948;53.250;10.412;2022-12-11T07:46:32;-1.90;99.90
3866;DHT22;1948;53.250;10.412;2022-12-11T07:49:00;-1.80;99.90
3866;DHT22;1948;53.250;10.412;2022-12-11T07:51:33;-1.80;99.90
3866;DHT22;1948;53.250;10.412;2022-12-11T07:54:04;-1.70;99.90
3866;DHT22;1948;53.250;10.412;2022-12-11T07:56:34;-1.50;99.90
3866;DHT22;1948;53.250;10.412;2022-12-11T07:59:03;-1.00;99.90
3866;DHT22;1948;53.250;10.412;2022-12-11T08:01:33;-0.40;99.90
3866;DHT22;1948;53.250;10.412;2022-12-11T08:04:04;0.20;99.90
3866;DHT22;1948;53.250;10.412;2022-12-11T08:06:35;1.00;99.90
3866;DHT22;1948;53.250;10.412;2022-12-11T08:09:10;1.70;99.90
3866;DHT22;1948;53.250;10.412;2022-12-11T08:11:50;2.50;99.90
3866;DHT22;1948;53.250;10.412;2022-12-11T08:14:24;3.10;99.90
3866;DHT22;1948;53.250;10.412;2022-12-11T08:16:52;3.70;99.90
3866;DHT22;1948;53.250;10.412;2022-12-11T08:19:19;4.30;99.90
3866;DHT22;1948;53.250;10.412;2022-12-11T08:21:48;4.70;99.90
3866;DHT22;1948;53.250;10.412;2022-12-11T08:24:15;5.10;99.90
3866;DHT22;1948;53.250;10.412;2022-12-11T08:26:47;5.50;99.90
3866;DHT22;1948;53.250;10.412;2022-12-11T08:29:17;6.10;99.90
3866;DHT22;1948;53.250;10.412;2022-12-11T08:31:44;6.50;99.90
3866;DHT22;1948;53.250;10.412;2022-12-11T08:34:12;7.00;99.90
3866;DHT22;1948;53.250;10.412;2022-12-11T08:36:40;7.50;99.90
3866;DHT22;1948;53.250;10.412;2022-12-11T08:39:11;8.00;99.90
3866;DHT22;1948;53.250;10.412;2022-12-11T08:41:38;8.40;99.90
3866;DHT22;1948;53.250;10.412;2022-12-11T08:44:10;8.70;99.90
3866;DHT22;1948;53.250;10.412;2022-12-11T08:46:43;9.10;99.90
3866;DHT22;1948;53.250;10.412;2022-12-11T08:49:10;9.60;99.90
3866;DHT22;1948;53.250;10.412;2022-12-11T08:51:41;9.80;99.90
3866;DHT22;1948;53.250;10.412;2022-12-11T08:54:08;10.50;99.90
3866;DHT22;1948;53.250;10.412;2022-12-11T08:56:36;11.10;99.90
3866;DHT22;1948;53.250;10.412;2022-12-11T08:59:06;11.30;99.40
3866;DHT22;1948;53.250;10.412;2022-12-11T09:01:34;11.50;98.40
3866;DHT22;1948;53.250;10.412;2022-12-11T09:04:02;11.70;97.80
3866;DHT22;1948;53.250;10.412;2022-12-11T09:06:31;12.20;96.90
3866;DHT22;1948;53.250;10.412;2022-12-11T09:09:00;12.40;95.90
3866;DHT22;1948;53.250;10.412;2022-12-11T09:11:31;12.70;95.30
3866;DHT22;1948;53.250;10.412;2022-12-11T09:14:00;13.30;94.00
3866;DHT22;1948;53.250;10.412;2022-12-11T09:16:33;13.80;93.00
3866;DHT22;1948;53.250;10.412;2022-12-11T09:19:08;14.10;91.60
3866;DHT22;1948;53.250;10.412;2022-12-11T09:21:41;14.20;91.00
3866;DHT22;1948;53.250;10.412;2022-12-11T09:24:10;14.30;89.40
3866;DHT22;1948;53.250;10.412;2022-12-11T09:26:38;14.30;89.10
3866;DHT22;1948;53.250;10.412;2022-12-11T09:29:06;14.50;87.60
3866;DHT22;1948;53.250;10.412;2022-12-11T09:31:35;14.70;86.30
3866;DHT22;1948;53.250;10.412;2022-12-11T09:34:05;15.10;85.00
3866;DHT22;1948;53.250;10.412;2022-12-11T09:36:36;15.40;84.00
3866;DHT22;1948;53.250;10.412;2022-12-11T09:39:06;15.90;80.80
3866;DHT22;1948;53.250;10.412;2022-12-11T09:47:00;16.90;75.00
3866;DHT22;1948;53.250;10.412;2022-12-11T09:49:39;17.10;73.30
3866;DHT22;1948;53.250;10.412;2022-12-11T09:52:22;16.90;71.50
3866;DHT22;1948;53.250;10.412;2022-12-11T09:55:22;16.80;70.70
3866;DHT22;1948;53.250;10.412;2022-12-11T10:00:39;17.40;69.80
3866;DHT22;1948;53.250;10.412;2022-12-11T10:03:44;18.10;68.00
3866;DHT22;1948;53.250;10.412;2022-12-11T10:06:39;18.60;66.10
3866;DHT22;1948;53.250;10.412;2022-12-11T10:12:17;18.70;63.60
3866;DHT22;1948;53.250;10.412;2022-12-11T10:17:41;18.90;62.90
3866;DHT22;1948;53.250;10.412;2022-12-11T10:20:22;19.20;62.10
3866;DHT22;1948;53.250;10.412;2022-12-11T10:23:20;19.70;60.40
3866;DHT22;1948;53.250;10.412;2022-12-11T10:26:12;19.70;59.70
3866;DHT22;1948;53.250;10.412;2022-12-11T10:28:43;17.40;58.10
3866;DHT22;1948;53.250;10.412;2022-12-11T10:31:37;14.40;59.40
3866;DHT22;1948;53.250;10.412;2022-12-11T10:34:12;12.30;61.60
3866;DHT22;1948;53.250;10.412;2022-12-11T10:36:42;10.40;65.30
3866;DHT22;1948;53.250;10.412;2022-12-11T10:39:20;9.30;70.20
3866;DHT22;1948;53.250;10.412;2022-12-11T10:41:53;8.30;73.90
3866;DHT22;1948;53.250;10.412;2022-12-11T10:49:38;10.70;80.50
3866;DHT22;1948;53.250;10.412;2022-12-11T10:52:31;12.60;77.10
3866;DHT22;1948;53.250;10.412;2022-12-11T10:58:03;15.40;70.20
3866;DHT22;1948;53.250;10.412;2022-12-11T11:03:24;17.60;67.50
3866;DHT22;1948;53.250;10.412;2022-12-11T11:06:11;18.00;64.70
3866;DHT22;1948;53.250;10.412;2022-12-11T11:08:48;18.50;63.30
3866;DHT22;1948;53.250;10.412;2022-12-11T11:13:51;19.30;60.40
3866;DHT22;1948;53.250;10.412;2022-12-11T11:16:31;19.60;60.70
3866;DHT22;1948;53.250;10.412;2022-12-11T11:19:05;20.00;59.60
3866;DHT22;1948;53.250;10.412;2022-12-11T11:21:33;19.70;58.80
3866;DHT22;1948;53.250;10.412;2022-12-11T11:24:02;20.10;58.60
3866;DHT22;1948;53.250;10.412;2022-12-11T11:26:31;20.40;57.30
3866;DHT22;1948;53.250;10.412;2022-12-11T11:29:29;20.30;56.90
3866;DHT22;1948;53.250;10.412;2022-12-11T11:34:43;20.90;56.20
3866;DHT22;1948;53.250;10.412;2022-12-11T11:37:31;21.50;55.70
3866;DHT22;1948;53.250;10.412;2022-12-11T11:40:10;21.40;54.50
3866;DHT22;1948;53.250;10.412;2022-12-11T11:43:16;21.30;54.70
3866;DHT22;1948;53.250;10.412;2022-12-11T11:46:02;21.20;55.00
3866;DHT22;1948;53.250;10.412;2022-12-11T11:48:53;20.30;54.80
3866;DHT22;1948;53.250;10.412;2022-12-11T11:51:32;20.20;55.00
3866;DHT22;1948;53.250;10.412;2022-12-11T11:54:04;20.50;54.90
3866;DHT22;1948;53.250;10.412;2022-12-11T11:56:45;20.10;54.70
3866;DHT22;1948;53.250;10.412;2022-12-11T11:59:38;20.20;54.90
3866;DHT22;1948;53.250;10.412;2022-12-11T12:02:15;19.40;54.70
3866;DHT22;1948;53.250;10.412;2022-12-11T12:04:46;18.80;54.70
3866;DHT22;1948;53.250;10.412;2022-12-11T12:07:23;18.90;55.30
3866;DHT22;1948;53.250;10.412;2022-12-11T12:10:24;18.90;55.80
3866;DHT22;1948;53.250;10.412;2022-12-11T12:13:06;19.40;56.20
3866;DHT22;1948;53.250;10.412;2022-12-11T12:16:15;19.80;55.70
3866;DHT22;1948;53.250;10.412;2022-12-11T12:22:53;18.30;55.50
3866;DHT22;1948;53.250;10.412;2022-12-11T12:25:37;18.30;56.10
3866;DHT22;1948;53.250;10.412;2022-12-11T12:29:13;18.60;56.50
3866;DHT22;1948;53.250;10.412;2022-12-11T12:31:52;18.50;56.20
3866;DHT22;1948;53.250;10.412;2022-12-11T12:34:56;17.30;55.90
3866;DHT22;1948;53.250;10.412;2022-12-11T12:49:43;10.30;63.70
3866;DHT22;1948;53.250;10.412;2022-12-11T12:52:39;9.20;68.40
3866;DHT22;1948;53.250;10.412;2022-12-11T12:55:27;8.30;72.20
3866;DHT22;1948;53.250;10.412;2022-12-11T12:58:00;7.60;77.60
3866;DHT22;1948;53.250;10.412;2022-12-11T13:00:34;7.00;81.80
3866;DHT22;1948;53.250;10.412;2022-12-11T13:03:22;6.40;89.30
3866;DHT22;1948;53.250;10.412;2022-12-11T13:08:45;5.50;96.10
3866;DHT22;1948;53.250;10.412;2022-12-11T13:11:15;5.40;98.40
3866;DHT22;1948;53.250;10.412;2022-12-11T13:14:34;5.10;99.90
3866;DHT22;1948;53.250;10.412;2022-12-11T13:16:47;4.90;99.90
3866;DHT22;1948;53.250;10.412;2022-12-11T13:24:30;4.40;99.90
3866;DHT22;1948;53.250;10.412;2022-12-11T13:27:21;4.40;99.90
3866;DHT22;1948;53.250;10.412;2022-12-11T13:29:51;4.30;99.90
3866;DHT22;1948;53.250;10.412;2022-12-11T13:32:30;4.10;99.90
3866;DHT22;1948;53.250;10.412;2022-12-11T13:35:04;4.00;99.90
3866;DHT22;1948;53.250;10.412;2022-12-11T13:37:36;4.00;99.90
3866;DHT22;1948;53.250;10.412;2022-12-11T13:40:13;3.90;99.90
3866;DHT22;1948;53.250;10.412;2022-12-11T13:42:49;3.80;99.90
3866;DHT22;1948;53.250;10.412;2022-12-11T13:47:58;3.50;99.90
3866;DHT22;1948;53.250;10.412;2022-12-11T13:50:30;3.40;99.90
3866;DHT22;1948;53.250;10.412;2022-12-11T13:53:00;3.40;99.90
3866;DHT22;1948;53.250;10.412;2022-12-11T13:55:33;3.50;99.90
3866;DHT22;1948;53.250;10.412;2022-12-11T13:58:01;3.50;99.90
3866;DHT22;1948;53.250;10.412;2022-12-11T14:00:30;3.60;99.90
3866;DHT22;1948;53.250;10.412;2022-12-11T14:03:04;3.60;99.90
3866;DHT22;1948;53.250;10.412;2022-12-11T14:05:34;3.60;99.90
3866;DHT22;1948;53.250;10.412;2022-12-11T14:08:06;3.60;99.90
3866;DHT22;1948;53.250;10.412;2022-12-11T14:10:40;3.60;99.90
3866;DHT22;1948;53.250;10.412;2022-12-11T14:13:24;4.00;99.90
3866;DHT22;1948;53.250;10.412;2022-12-11T14:15:53;4.40;99.90
3866;DHT22;1948;53.250;10.412;2022-12-11T14:18:23;4.20;99.90
3866;DHT22;1948;53.250;10.412;2022-12-11T14:20:56;4.00;99.90
3866;DHT22;1948;53.250;10.412;2022-12-11T14:23:27;3.70;99.90
3866;DHT22;1948;53.250;10.412;2022-12-11T14:25:58;3.50;99.90
3866;DHT22;1948;53.250;10.412;2022-12-11T14:28:33;3.40;99.90
3866;DHT22;1948;53.250;10.412;2022-12-11T14:31:04;3.40;99.90
3866;DHT22;1948;53.250;10.412;2022-12-11T14:33:37;3.30;99.90
3866;DHT22;1948;53.250;10.412;2022-12-11T14:36:09;3.30;99.90
3866;DHT22;1948;53.250;10.412;2022-12-11T14:38:43;3.20;99.90
3866;DHT22;1948;53.250;10.412;2022-12-11T14:41:26;3.20;99.90
3866;DHT22;1948;53.250;10.412;2022-12-11T14:43:59;3.10;99.90
3866;DHT22;1948;53.250;10.412;2022-12-11T14:46:43;3.20;99.90
3866;DHT22;1948;53.250;10.412;2022-12-11T14:49:27;3.10;99.90
3866;DHT22;1948;53.250;10.412;2022-12-11T14:52:15;2.90;99.90
3866;DHT22;1948;53.250;10.412;2022-12-11T14:55:02;2.80;99.90
3866;DHT22;1948;53.250;10.412;2022-12-11T14:57:33;2.80;99.90
3866;DHT22;1948;53.250;10.412;2022-12-11T15:00:04;2.80;99.90
3866;DHT22;1948;53.250;10.412;2022-12-11T15:02:34;2.80;99.90
3866;DHT22;1948;53.250;10.412;2022-12-11T15:05:14;2.80;99.90
3866;DHT22;1948;53.250;10.412;2022-12-11T15:10:39;2.60;99.90
3866;DHT22;1948;53.250;10.412;2022-12-11T15:13:09;2.60;99.90
3866;DHT22;1948;53.250;10.412;2022-12-11T15:15:45;2.60;99.90
3866;DHT22;1948;53.250;10.412;2022-12-11T15:18:23;2.60;99.90
3866;DHT22;1948;53.250;10.412;2022-12-11T15:20:56;2.60;99.90
3866;DHT22;1948;53.250;10.412;2022-12-11T15:23:49;2.60;99.90
3866;DHT22;1948;53.250;10.412;2022-12-11T15:27:05;2.50;99.90
3866;DHT22;1948;53.250;10.412;2022-12-11T15:29:38;2.40;99.90
3866;DHT22;1948;53.250;10.412;2022-12-11T15:37:54;2.40;99.90
3866;DHT22;1948;53.250;10.412;2022-12-11T15:40:23;2.40;99.90
3866;DHT22;1948;53.250;10.412;2022-12-11T15:42:54;2.40;99.90
3866;DHT22;1948;53.250;10.412;2022-12-11T15:45:26;2.40;99.90
3866;DHT22;1948;53.250;10.412;2022-12-11T15:47:55;2.30;99.90
3866;DHT22;1948;53.250;10.412;2022-12-11T15:50:27;2.30;99.90
3866;DHT22;1948;53.250;10.412;2022-12-11T15:52:57;2.30;99.90
3866;DHT22;1948;53.250;10.412;2022-12-11T15:55:25;2.30;99.90
3866;DHT22;1948;53.250;10.412;2022-12-11T15:57:55;2.20;99.90
3866;DHT22;1948;53.250;10.412;2022-12-11T16:00:25;2.10;99.90
3866;DHT22;1948;53.250;10.412;2022-12-11T16:02:56;2.20;99.90
3866;DHT22;1948;53.250;10.412;2022-12-11T16:05:25;2.10;99.90
3866;DHT22;1948;53.250;10.412;2022-12-11T16:07:53;2.20;99.90
3866;DHT22;1948;53.250;10.412;2022-12-11T16:10:22;2.10;99.90
3866;DHT22;1948;53.250;10.412;2022-12-11T16:12:50;2.10;99.90
3866;DHT22;1948;53.250;10.412;2022-12-11T16:15:17;2.10;99.90
3866;DHT22;1948;53.250;10.412;2022-12-11T16:17:50;2.10;99.90
3866;DHT22;1948;53.250;10.412;2022-12-11T16:20:25;2.10;99.90
3866;DHT22;1948;53.250;10.412;2022-12-11T16:22:53;2.10;99.90
3866;DHT22;1948;53.250;10.412;2022-12-11T16:25:22;2.20;99.90
3866;DHT22;1948;53.250;10.412;2022-12-11T16:27:50;2.10;99.90
3866;DHT22;1948;53.250;10.412;2022-12-11T16:30:20;2.10;99.90
3866;DHT22;1948;53.250;10.412;2022-12-11T16:32:48;2.10;99.90
3866;DHT22;1948;53.250;10.412;2022-12-11T16:35:17;2.00;99.90
3866;DHT22;1948;53.250;10.412;2022-12-11T16:37:48;1.90;99.90
3866;DHT22;1948;53.250;10.412;2022-12-11T16:40:20;1.90;99.90
3866;DHT22;1948;53.250;10.412;2022-12-11T16:42:48;1.90;99.90
3866;DHT22;1948;53.250;10.412;2022-12-11T16:45:22;1.90;99.90
3866;DHT22;1948;53.250;10.412;2022-12-11T16:47:51;1.80;99.90
3866;DHT22;1948;53.250;10.412;2022-12-11T16:50:19;1.90;99.90
3866;DHT22;1948;53.250;10.412;2022-12-11T16:52:46;1.80;99.90
3866;DHT22;1948;53.250;10.412;2022-12-11T16:55:13;1.90;99.90
3866;DHT22;1948;53.250;10.412;2022-12-11T16:57:41;1.80;99.90
3866;DHT22;1948;53.250;10.412;2022-12-11T17:00:10;1.80;99.90
3866;DHT22;1948;53.250;10.412;2022-12-11T17:02:39;1.80;99.90
3866;DHT22;1948;53.250;10.412;2022-12-11T17:05:09;1.80;99.90
3866;DHT22;1948;53.250;10.412;2022-12-11T17:07:37;1.90;99.90
3866;DHT22;1948;53.250;10.412;2022-12-11T17:10:04;1.90;99.90
3866;DHT22;1948;53.250;10.412;2022-12-11T17:12:31;1.90;99.90
3866;DHT22;1948;53.250;10.412;2022-12-11T17:14:59;1.80;99.90
3866;DHT22;1948;53.250;10.412;2022-12-11T17:17:26;1.90;99.90
3866;DHT22;1948;53.250;10.412;2022-12-11T17:19:53;1.80;99.90
3866;DHT22;1948;53.250;10.412;2022-12-11T17:22:22;1.80;99.90
3866;DHT22;1948;53.250;10.412;2022-12-11T17:24:49;1.80;99.90
3866;DHT22;1948;53.250;10.412;2022-12-11T17:27:16;1.80;99.90
3866;DHT22;1948;53.250;10.412;2022-12-11T17:29:43;1.80;99.90
3866;DHT22;1948;53.250;10.412;2022-12-11T17:32:10;1.80;99.90
3866;DHT22;1948;53.250;10.412;2022-12-11T17:34:39;1.80;99.90
3866;DHT22;1948;53.250;10.412;2022-12-11T17:37:06;1.80;99.90
3866;DHT22;1948;53.250;10.412;2022-12-11T17:39:33;1.80;99.90
3866;DHT22;1948;53.250;10.412;2022-12-11T17:42:03;1.70;99.90
3866;DHT22;1948;53.250;10.412;2022-12-11T17:44:33;1.70;99.90
3866;DHT22;1948;53.250;10.412;2022-12-11T17:47:00;1.70;99.90
3866;DHT22;1948;53.250;10.412;2022-12-11T17:49:34;1.70;99.90